Shepley, Wisconsin
Current Conditions -  °F | °C
As of 5:15 AM on Saturday 22 Nov 2014 (Local Time) from KAIG Reporting Station
Overcast Overcast  
Wind Chill: 20°   Ceiling: 900
Heat Index: 29°   Visibility: 7mi
Dew Point: 27°   Wind: 10mph
Humidity: 90%   Direction: 220°SW
Pressure: 29.82"   Gusts: 18mph
Location:  44.8179°N, 89.172°W
Report Text: KAIG 221115Z AUTO 22009G16KT 7SM OVC009 M01/M03 A2982 RMK AO2 T10151029
Loading
Personal Weather Stations






























Interactive Weather Map New forecast layout! Learn more

10-Day Weather Forecast

Advertisements
Track Severe Weather on mobile